createdAt,value
2023-05-19T10:04:06.290Z,91.70
2023-05-19T10:07:00.291Z,86.07
2023-05-19T10:09:40.141Z,73.84
2023-05-19T10:12:19.066Z,69.86
2023-05-19T10:15:11.967Z,69.98
2023-05-19T10:17:53.292Z,66.06
2023-05-19T10:20:34.926Z,69.81
2023-05-19T10:23:30.641Z,68.96
2023-05-19T10:26:17.209Z,64.09
2023-05-19T10:29:06.044Z,64.69
2023-05-19T10:31:44.063Z,61.44
2023-05-19T10:35:11.637Z,59.82
2023-05-19T10:37:59.993Z,57.16
2023-05-19T10:41:16.690Z,57.64
2023-05-19T10:44:23.931Z,60.20
2023-05-19T10:47:05.549Z,61.85
2023-05-19T10:49:45.231Z,65.83
2023-05-19T10:52:34.593Z,61.80
2023-05-19T10:55:41.527Z,61.35
2023-05-19T10:58:16.086Z,61.13
2023-05-19T11:01:11.912Z,61.05
2023-05-19T11:04:12.486Z,61.11
2023-05-19T11:07:01.672Z,60.01
2023-05-19T11:09:43.055Z,58.87
2023-05-19T11:12:27.034Z,58.32
2023-05-19T11:15:10.568Z,56.66
2023-05-19T11:17:56.670Z,57.47
2023-05-19T11:20:47.620Z,59.81
2023-05-19T11:23:28.535Z,56.14
2023-05-19T11:26:16.041Z,56.19
2023-05-19T11:29:08.005Z,55.45
2023-05-19T11:31:50.947Z,53.47
2023-05-19T11:34:38.926Z,52.76
2023-05-19T11:37:23.813Z,53.84
2023-05-19T11:40:07.620Z,51.87
2023-05-19T11:42:45.320Z,50.93
2023-05-19T11:45:29.682Z,53.41
2023-05-19T11:48:24.114Z,51.83
2023-05-19T11:51:26.403Z,52.86
2023-05-19T11:54:00.705Z,54.88
2023-05-19T11:57:25.141Z,51.02
2023-05-19T12:00:31.162Z,51.91
2023-05-19T12:03:21.308Z,52.40
2023-05-19T12:06:17.294Z,54.60
2023-05-19T12:09:15.107Z,55.00
2023-05-19T12:12:14.971Z,56.38
2023-05-19T12:15:02.572Z,56.51
2023-05-19T12:17:46.597Z,53.53
2023-05-19T12:20:27.311Z,52.28
2023-05-19T12:23:11.606Z,53.06
2023-05-19T12:25:51.903Z,50.11
2023-05-19T12:28:52.034Z,50.53
2023-05-19T12:31:31.223Z,51.28
2023-05-19T12:34:12.018Z,50.72
2023-05-19T12:37:02.642Z,47.30
2023-05-19T12:39:44.827Z,48.11
2023-05-19T12:42:31.379Z,47.34
2023-05-19T18:51:48.968Z,100.00
2023-05-19T18:54:34.023Z,100.00
2023-05-19T18:57:26.675Z,100.00
2023-05-19T19:00:08.040Z,100.00
2023-05-19T19:02:52.317Z,100.00
2023-05-19T19:05:42.248Z,100.00
2023-05-19T19:08:36.470Z,100.00
2023-05-19T19:11:21.477Z,100.00
2023-05-19T19:14:04.717Z,100.00
2023-05-19T19:16:56.295Z,100.00
2023-05-19T19:22:53.260Z,100.00
2023-05-19T19:25:47.837Z,100.00
2023-05-19T19:28:36.583Z,100.00
2023-05-19T19:31:36.982Z,100.00
2023-05-19T19:34:21.430Z,100.00
2023-05-19T19:37:03.248Z,100.00
2023-05-19T19:39:46.774Z,100.00
2023-05-19T19:42:40.592Z,100.00
2023-05-19T19:45:12.563Z,100.00
2023-05-19T19:48:06.115Z,100.00
2023-05-19T19:50:48.012Z,100.00
2023-05-19T19:53:28.989Z,100.00
2023-05-19T19:56:21.273Z,100.00
2023-05-19T19:59:17.129Z,100.00
2023-05-19T20:02:04.031Z,100.00
2023-05-19T20:04:39.495Z,100.00
2023-05-19T20:07:19.695Z,100.00
2023-05-19T20:10:01.420Z,100.00
2023-05-19T20:12:39.443Z,100.00
2023-05-19T20:15:21.876Z,100.00
2023-05-19T20:18:06.837Z,100.00
2023-05-19T20:20:52.990Z,100.00
2023-05-19T20:23:36.657Z,100.00
2023-05-19T20:26:20.133Z,100.00
2023-05-19T20:29:12.356Z,100.00
2023-05-19T20:31:58.834Z,100.00
2023-05-19T20:34:41.852Z,100.00
2023-05-19T20:37:22.213Z,100.00
2023-05-19T20:40:01.312Z,100.00
2023-05-19T20:42:49.224Z,100.00
2023-05-19T20:45:25.891Z,100.00
2023-05-19T20:48:19.502Z,100.00
2023-05-19T20:51:01.438Z,100.00
2023-05-19T20:53:49.831Z,100.00
2023-05-19T20:56:36.821Z,100.00
2023-05-19T20:59:41.184Z,100.00
2023-05-19T21:02:30.652Z,100.00
2023-05-19T21:05:13.958Z,100.00
2023-05-19T21:10:50.999Z,100.00
2023-05-19T21:13:33.980Z,100.00
2023-05-19T21:16:20.484Z,100.00
2023-05-19T21:18:52.528Z,100.00
2023-05-19T21:21:36.206Z,100.00
2023-05-19T21:24:18.337Z,100.00
2023-05-19T21:27:02.037Z,100.00
2023-05-19T21:29:45.670Z,100.00
2023-05-19T21:32:33.541Z,100.00
2023-05-19T21:35:25.671Z,100.00
2023-05-19T21:38:22.770Z,100.00
2023-05-19T21:41:06.934Z,100.00
2023-05-19T21:44:01.654Z,100.00
2023-05-19T21:46:50.436Z,100.00
2023-05-19T21:49:29.589Z,100.00
2023-05-19T21:52:06.919Z,100.00
2023-05-19T21:55:02.300Z,100.00
2023-05-19T21:57:51.256Z,100.00
2023-05-19T22:00:36.859Z,100.00
2023-05-19T22:03:18.486Z,100.00
2023-05-19T22:06:04.164Z,100.00
2023-05-19T22:08:53.064Z,100.00
2023-05-19T22:11:30.967Z,100.00
2023-05-19T22:14:11.598Z,100.00
2023-05-19T22:16:53.116Z,100.00
2023-05-19T22:19:34.868Z,100.00
2023-05-19T22:22:15.961Z,100.00
2023-05-19T22:24:59.951Z,100.00
2023-05-19T22:27:37.874Z,100.00
2023-05-19T22:30:21.810Z,100.00
2023-05-19T22:32:59.885Z,100.00
2023-05-19T22:35:43.709Z,100.00
2023-05-19T22:38:24.115Z,100.00
2023-05-19T22:41:04.567Z,100.00
2023-05-19T22:43:45.432Z,100.00
2023-05-19T22:46:26.625Z,100.00
2023-05-19T22:49:04.343Z,100.00
2023-05-19T22:51:59.775Z,100.00
2023-05-19T22:54:42.547Z,100.00
2023-05-19T22:57:20.457Z,100.00
2023-05-19T23:00:04.540Z,100.00
2023-05-19T23:02:44.669Z,100.00
2023-05-19T23:05:28.094Z,100.00
2023-05-19T23:08:06.960Z,100.00
2023-05-19T23:10:50.236Z,100.00
2023-05-19T23:13:40.355Z,100.00
2023-05-19T23:16:34.308Z,100.00
2023-05-19T23:19:34.077Z,100.00
2023-05-19T23:22:11.948Z,100.00
2023-05-19T23:24:47.377Z,100.00
2023-05-19T23:27:25.052Z,100.00
2023-05-19T23:30:06.275Z,100.00
2023-05-19T23:33:03.825Z,100.00
2023-05-19T23:35:48.467Z,100.00
2023-05-19T23:38:29.866Z,100.00
2023-05-19T23:41:23.094Z,100.00
2023-05-19T23:44:11.759Z,100.00
2023-05-19T23:46:52.630Z,100.00
2023-05-19T23:49:43.926Z,100.00
2023-05-19T23:52:29.925Z,100.00
2023-05-19T23:55:14.631Z,100.00
2023-05-19T23:57:58.612Z,100.00
